N2RF KASH-KASH
Flight info
| Callsign | N2RF |
|---|---|
| Flight time | 0h 5m |
| Altitude | VFR/045 |
| Route | |
| Aircraft |
Departure
| Time | 2026-04-29 01:16 |
|---|---|
| Airport | Nashua Airport / Boire Field (KASH) |
Arrival
| Time | 2026-04-29 01:21 |
|---|---|
| Airport | Nashua Airport / Boire Field (KASH) |
| Time | Latitude | Longitude | Altitude | Speed | Heading |
|---|---|---|---|---|---|
| 2026-04-29 01:16 | 42.90111 | -71.45287 | 4642 ft | 180 kts | 179° |
| 2026-04-29 01:16 | 42.88844 | -71.45318 | 4571 ft | 184 kts | 180° |
| 2026-04-29 01:16 | 42.87549 | -71.45374 | 4463 ft | 188 kts | 181° |
| 2026-04-29 01:16 | 42.86225 | -71.45474 | 4280 ft | 192 kts | 181° |
| 2026-04-29 01:17 | 42.84913 | -71.45566 | 4282 ft | 187 kts | 180° |
| 2026-04-29 01:17 | 42.84045 | -71.45624 | 4176 ft | 190 kts | 181° |
| 2026-04-29 01:17 | 42.82331 | -71.45905 | 4018 ft | 176 kts | 207° |
| 2026-04-29 01:17 | 42.81880 | -71.47235 | 3683 ft | 145 kts | 275° |
| 2026-04-29 01:18 | 42.82152 | -71.48477 | 2769 ft | 142 kts | 296° |
| 2026-04-29 01:18 | 42.83136 | -71.50582 | 1707 ft | 121 kts | 303° |
| 2026-04-29 01:18 | 42.83401 | -71.51760 | 1303 ft | 138 kts | 253° |
| 2026-04-29 01:19 | 42.82851 | -71.52722 | 1214 ft | 127 kts | 216° |
| 2026-04-29 01:19 | 42.82180 | -71.53433 | 1106 ft | 124 kts | 212° |
| 2026-04-29 01:19 | 42.81464 | -71.54070 | 1011 ft | 110 kts | 207° |
| 2026-04-29 01:19 | 42.80816 | -71.54567 | 821 ft | 103 kts | 201° |
| 2026-04-29 01:20 | 42.80131 | -71.54628 | 699 ft | 104 kts | 155° |
| 2026-04-29 01:20 | 42.79564 | -71.54071 | 489 ft | 95 kts | 128° |
| 2026-04-29 01:20 | 42.79185 | -71.53371 | 342 ft | 93 kts | 122° |
| 2026-04-29 01:20 | 42.78834 | -71.52649 | 238 ft | 84 kts | 122° |
| 2026-04-29 01:21 | 42.78559 | -71.52080 | 206 ft | 62 kts | 126° |
| 2026-04-29 01:21 | 42.78351 | -71.51640 | 199 ft | 50 kts | 123° |
| 2026-04-29 01:21 | 42.78180 | -71.51276 | 198 ft | 43 kts | 121° |
| 2026-04-29 01:21 | 42.78051 | -71.51141 | 198 ft | 15 kts | 246° |
| 2026-04-29 01:22 | 42.78028 | -71.51171 | 198 ft | 0 kts | 212° |
| 2026-04-29 01:22 | 42.77997 | -71.51271 | 202 ft | 20 kts | 303° |
| 2026-04-29 01:22 | 42.78029 | -71.51425 | 199 ft | 15 kts | 214° |
| 2026-04-29 01:23 | 42.78039 | -71.51557 | 204 ft | 20 kts | 303° |
| 2026-04-29 01:23 | 42.78072 | -71.51656 | 204 ft | 0 kts | 25° |